sensor_id;sensor_type;location;lat;lon;timestamp;P1;durP1;ratioP1;P2;durP2;ratioP2
12687;SDS011;6408;59.388;17.798;2023-06-14T00:01:58;3.65;;;2.13;;
12687;SDS011;6408;59.388;17.798;2023-06-14T00:04:25;2.80;;;2.28;;
12687;SDS011;6408;59.388;17.798;2023-06-14T00:06:53;5.43;;;2.10;;
12687;SDS011;6408;59.388;17.798;2023-06-14T00:09:21;3.63;;;1.95;;
12687;SDS011;6408;59.388;17.798;2023-06-14T00:11:50;3.05;;;2.00;;
12687;SDS011;6408;59.388;17.798;2023-06-14T00:14:18;4.47;;;2.22;;
12687;SDS011;6408;59.388;17.798;2023-06-14T00:16:45;3.25;;;1.90;;
12687;SDS011;6408;59.388;17.798;2023-06-14T00:19:12;2.70;;;1.90;;
12687;SDS011;6408;59.388;17.798;2023-06-14T00:21:41;2.88;;;1.95;;
12687;SDS011;6408;59.388;17.798;2023-06-14T00:24:08;1.83;;;1.73;;
12687;SDS011;6408;59.388;17.798;2023-06-14T00:26:35;3.45;;;1.80;;
12687;SDS011;6408;59.388;17.798;2023-06-14T00:29:05;2.58;;;1.70;;
12687;SDS011;6408;59.388;17.798;2023-06-14T00:31:32;3.88;;;1.90;;
12687;SDS011;6408;59.388;17.798;2023-06-14T00:34:00;3.22;;;2.17;;
12687;SDS011;6408;59.388;17.798;2023-06-14T00:36:27;2.38;;;1.73;;
12687;SDS011;6408;59.388;17.798;2023-06-14T00:38:54;2.40;;;2.00;;
12687;SDS011;6408;59.388;17.798;2023-06-14T00:41:21;2.97;;;2.10;;
12687;SDS011;6408;59.388;17.798;2023-06-14T00:43:48;5.03;;;2.00;;
12687;SDS011;6408;59.388;17.798;2023-06-14T00:46:17;3.10;;;2.00;;
12687;SDS011;6408;59.388;17.798;2023-06-14T00:48:47;2.22;;;1.85;;
12687;SDS011;6408;59.388;17.798;2023-06-14T00:51:15;4.80;;;2.28;;
12687;SDS011;6408;59.388;17.798;2023-06-14T00:53:43;2.47;;;2.17;;
12687;SDS011;6408;59.388;17.798;2023-06-14T00:56:12;2.45;;;2.00;;
12687;SDS011;6408;59.388;17.798;2023-06-14T00:58:40;4.68;;;1.80;;
12687;SDS011;6408;59.388;17.798;2023-06-14T01:01:08;4.85;;;2.00;;
12687;SDS011;6408;59.388;17.798;2023-06-14T01:03:37;1.85;;;1.73;;
12687;SDS011;6408;59.388;17.798;2023-06-14T01:06:05;3.60;;;2.13;;
12687;SDS011;6408;59.388;17.798;2023-06-14T01:08:42;4.43;;;1.98;;
12687;SDS011;6408;59.388;17.798;2023-06-14T01:11:16;2.58;;;1.80;;
12687;SDS011;6408;59.388;17.798;2023-06-14T01:13:48;4.15;;;2.00;;
12687;SDS011;6408;59.388;17.798;2023-06-14T01:16:18;5.47;;;2.00;;
12687;SDS011;6408;59.388;17.798;2023-06-14T01:18:48;2.65;;;2.03;;
12687;SDS011;6408;59.388;17.798;2023-06-14T01:21:21;3.05;;;1.85;;
12687;SDS011;6408;59.388;17.798;2023-06-14T01:23:50;2.33;;;1.90;;
12687;SDS011;6408;59.388;17.798;2023-06-14T01:26:18;3.20;;;1.75;;
12687;SDS011;6408;59.388;17.798;2023-06-14T01:28:46;4.03;;;2.13;;
12687;SDS011;6408;59.388;17.798;2023-06-14T01:31:16;2.00;;;1.80;;
12687;SDS011;6408;59.388;17.798;2023-06-14T01:33:46;4.47;;;2.08;;
12687;SDS011;6408;59.388;17.798;2023-06-14T01:36:16;3.45;;;2.17;;
12687;SDS011;6408;59.388;17.798;2023-06-14T01:38:46;4.20;;;2.03;;
12687;SDS011;6408;59.388;17.798;2023-06-14T01:41:16;3.72;;;1.98;;
12687;SDS011;6408;59.388;17.798;2023-06-14T01:43:45;2.95;;;2.00;;
12687;SDS011;6408;59.388;17.798;2023-06-14T01:46:15;3.45;;;2.38;;
12687;SDS011;6408;59.388;17.798;2023-06-14T01:48:43;4.80;;;2.10;;
12687;SDS011;6408;59.388;17.798;2023-06-14T01:51:10;4.22;;;2.40;;
12687;SDS011;6408;59.388;17.798;2023-06-14T01:53:37;3.58;;;1.92;;
12687;SDS011;6408;59.388;17.798;2023-06-14T01:56:05;3.00;;;1.95;;
12687;SDS011;6408;59.388;17.798;2023-06-14T01:58:34;2.80;;;1.83;;
12687;SDS011;6408;59.388;17.798;2023-06-14T02:01:01;2.00;;;1.80;;
12687;SDS011;6408;59.388;17.798;2023-06-14T02:03:29;4.55;;;2.60;;
12687;SDS011;6408;59.388;17.798;2023-06-14T02:05:56;5.20;;;2.13;;
12687;SDS011;6408;59.388;17.798;2023-06-14T02:08:23;3.28;;;1.85;;
12687;SDS011;6408;59.388;17.798;2023-06-14T02:10:51;3.13;;;2.10;;
12687;SDS011;6408;59.388;17.798;2023-06-14T02:13:18;4.72;;;2.20;;
12687;SDS011;6408;59.388;17.798;2023-06-14T02:15:47;4.68;;;2.65;;
12687;SDS011;6408;59.388;17.798;2023-06-14T02:18:18;2.85;;;2.25;;
12687;SDS011;6408;59.388;17.798;2023-06-14T02:20:45;2.20;;;2.00;;
12687;SDS011;6408;59.388;17.798;2023-06-14T02:23:12;3.53;;;2.38;;
12687;SDS011;6408;59.388;17.798;2023-06-14T02:25:39;2.22;;;1.85;;
12687;SDS011;6408;59.388;17.798;2023-06-14T02:28:06;2.92;;;2.38;;
12687;SDS011;6408;59.388;17.798;2023-06-14T02:30:33;4.88;;;2.25;;
12687;SDS011;6408;59.388;17.798;2023-06-14T02:33:02;3.78;;;2.47;;
12687;SDS011;6408;59.388;17.798;2023-06-14T02:35:29;3.70;;;2.40;;
12687;SDS011;6408;59.388;17.798;2023-06-14T02:37:57;4.22;;;2.25;;
12687;SDS011;6408;59.388;17.798;2023-06-14T02:40:24;2.50;;;2.30;;
12687;SDS011;6408;59.388;17.798;2023-06-14T02:42:51;3.63;;;2.30;;
12687;SDS011;6408;59.388;17.798;2023-06-14T02:45:18;5.00;;;2.63;;
12687;SDS011;6408;59.388;17.798;2023-06-14T02:47:46;2.97;;;2.28;;
12687;SDS011;6408;59.388;17.798;2023-06-14T02:50:14;3.90;;;2.20;;
12687;SDS011;6408;59.388;17.798;2023-06-14T02:52:42;5.15;;;2.30;;
12687;SDS011;6408;59.388;17.798;2023-06-14T02:55:10;5.18;;;2.30;;
12687;SDS011;6408;59.388;17.798;2023-06-14T02:57:38;5.95;;;2.40;;
12687;SDS011;6408;59.388;17.798;2023-06-14T03:00:05;3.95;;;2.38;;
12687;SDS011;6408;59.388;17.798;2023-06-14T03:02:38;3.58;;;2.60;;
12687;SDS011;6408;59.388;17.798;2023-06-14T03:05:07;5.22;;;3.03;;
12687;SDS011;6408;59.388;17.798;2023-06-14T03:07:36;7.30;;;2.47;;
12687;SDS011;6408;59.388;17.798;2023-06-14T03:10:06;4.57;;;2.88;;
12687;SDS011;6408;59.388;17.798;2023-06-14T03:12:34;5.07;;;2.40;;
12687;SDS011;6408;59.388;17.798;2023-06-14T03:15:02;2.97;;;2.55;;
12687;SDS011;6408;59.388;17.798;2023-06-14T03:17:30;3.40;;;2.38;;
12687;SDS011;6408;59.388;17.798;2023-06-14T03:19:58;3.83;;;2.38;;
12687;SDS011;6408;59.388;17.798;2023-06-14T03:22:26;3.45;;;2.50;;
12687;SDS011;6408;59.388;17.798;2023-06-14T03:24:55;3.35;;;2.42;;
12687;SDS011;6408;59.388;17.798;2023-06-14T03:27:22;5.43;;;2.90;;
12687;SDS011;6408;59.388;17.798;2023-06-14T03:29:49;4.55;;;2.70;;
12687;SDS011;6408;59.388;17.798;2023-06-14T03:32:16;6.07;;;2.47;;
12687;SDS011;6408;59.388;17.798;2023-06-14T03:34:43;2.83;;;2.53;;
12687;SDS011;6408;59.388;17.798;2023-06-14T03:37:11;3.13;;;2.58;;
12687;SDS011;6408;59.388;17.798;2023-06-14T03:39:38;2.90;;;2.60;;
12687;SDS011;6408;59.388;17.798;2023-06-14T03:42:12;3.67;;;2.53;;
12687;SDS011;6408;59.388;17.798;2023-06-14T03:44:39;4.38;;;2.30;;
12687;SDS011;6408;59.388;17.798;2023-06-14T03:47:06;5.05;;;2.75;;
12687;SDS011;6408;59.388;17.798;2023-06-14T03:49:34;4.43;;;2.58;;
12687;SDS011;6408;59.388;17.798;2023-06-14T03:52:02;3.38;;;2.33;;
12687;SDS011;6408;59.388;17.798;2023-06-14T03:54:30;4.32;;;2.38;;
12687;SDS011;6408;59.388;17.798;2023-06-14T03:56:58;5.07;;;2.67;;
12687;SDS011;6408;59.388;17.798;2023-06-14T03:59:27;7.35;;;2.50;;
12687;SDS011;6408;59.388;17.798;2023-06-14T04:01:54;4.07;;;2.30;;
12687;SDS011;6408;59.388;17.798;2023-06-14T04:04:22;5.60;;;2.40;;
12687;SDS011;6408;59.388;17.798;2023-06-14T04:06:53;6.15;;;2.55;;
12687;SDS011;6408;59.388;17.798;2023-06-14T04:09:21;4.32;;;2.45;;
12687;SDS011;6408;59.388;17.798;2023-06-14T04:11:49;3.50;;;2.45;;
12687;SDS011;6408;59.388;17.798;2023-06-14T04:14:17;4.80;;;2.55;;
12687;SDS011;6408;59.388;17.798;2023-06-14T04:16:46;4.18;;;2.60;;
12687;SDS011;6408;59.388;17.798;2023-06-14T04:19:14;3.45;;;2.13;;
12687;SDS011;6408;59.388;17.798;2023-06-14T04:21:41;2.78;;;2.15;;
12687;SDS011;6408;59.388;17.798;2023-06-14T04:24:08;6.22;;;2.53;;
12687;SDS011;6408;59.388;17.798;2023-06-14T04:26:38;4.25;;;2.50;;
12687;SDS011;6408;59.388;17.798;2023-06-14T04:29:05;2.70;;;2.08;;
12687;SDS011;6408;59.388;17.798;2023-06-14T04:31:32;4.03;;;2.40;;
12687;SDS011;6408;59.388;17.798;2023-06-14T04:34:04;3.22;;;2.40;;
12687;SDS011;6408;59.388;17.798;2023-06-14T04:36:31;2.83;;;2.10;;
12687;SDS011;6408;59.388;17.798;2023-06-14T04:38:59;4.00;;;2.40;;
12687;SDS011;6408;59.388;17.798;2023-06-14T04:41:28;3.33;;;2.47;;
12687;SDS011;6408;59.388;17.798;2023-06-14T04:43:56;3.35;;;2.70;;
12687;SDS011;6408;59.388;17.798;2023-06-14T04:46:26;3.60;;;2.70;;
12687;SDS011;6408;59.388;17.798;2023-06-14T04:48:55;4.13;;;2.50;;
12687;SDS011;6408;59.388;17.798;2023-06-14T04:51:24;5.70;;;2.47;;
12687;SDS011;6408;59.388;17.798;2023-06-14T04:53:55;3.72;;;2.50;;
12687;SDS011;6408;59.388;17.798;2023-06-14T04:56:23;2.92;;;2.42;;
12687;SDS011;6408;59.388;17.798;2023-06-14T04:58:51;3.00;;;2.50;;
12687;SDS011;6408;59.388;17.798;2023-06-14T05:01:21;3.95;;;2.40;;
12687;SDS011;6408;59.388;17.798;2023-06-14T05:03:49;2.92;;;2.50;;
12687;SDS011;6408;59.388;17.798;2023-06-14T05:06:17;3.05;;;2.40;;
12687;SDS011;6408;59.388;17.798;2023-06-14T05:08:45;5.40;;;2.50;;
12687;SDS011;6408;59.388;17.798;2023-06-14T05:11:13;7.38;;;2.45;;
12687;SDS011;6408;59.388;17.798;2023-06-14T05:13:42;3.25;;;2.60;;
12687;SDS011;6408;59.388;17.798;2023-06-14T05:16:09;2.88;;;2.42;;
12687;SDS011;6408;59.388;17.798;2023-06-14T05:18:37;4.57;;;2.30;;
12687;SDS011;6408;59.388;17.798;2023-06-14T05:21:05;3.10;;;2.55;;
12687;SDS011;6408;59.388;17.798;2023-06-14T05:23:32;4.20;;;2.70;;
12687;SDS011;6408;59.388;17.798;2023-06-14T05:26:01;3.10;;;2.05;;
12687;SDS011;6408;59.388;17.798;2023-06-14T05:28:29;3.28;;;2.47;;
12687;SDS011;6408;59.388;17.798;2023-06-14T05:30:57;3.03;;;2.10;;
12687;SDS011;6408;59.388;17.798;2023-06-14T05:33:25;3.25;;;2.15;;
12687;SDS011;6408;59.388;17.798;2023-06-14T05:35:52;2.65;;;2.28;;
12687;SDS011;6408;59.388;17.798;2023-06-14T05:38:19;3.40;;;2.20;;
12687;SDS011;6408;59.388;17.798;2023-06-14T05:40:46;3.38;;;2.78;;
12687;SDS011;6408;59.388;17.798;2023-06-14T05:43:14;4.57;;;2.58;;
12687;SDS011;6408;59.388;17.798;2023-06-14T05:45:42;3.55;;;2.30;;
12687;SDS011;6408;59.388;17.798;2023-06-14T05:48:09;4.53;;;2.40;;
12687;SDS011;6408;59.388;17.798;2023-06-14T05:50:36;5.10;;;2.38;;
12687;SDS011;6408;59.388;17.798;2023-06-14T05:53:03;2.78;;;2.22;;
12687;SDS011;6408;59.388;17.798;2023-06-14T05:55:30;3.83;;;2.30;;
12687;SDS011;6408;59.388;17.798;2023-06-14T05:57:57;4.82;;;2.47;;
12687;SDS011;6408;59.388;17.798;2023-06-14T06:00:26;3.08;;;2.40;;
12687;SDS011;6408;59.388;17.798;2023-06-14T06:02:54;4.80;;;2.65;;
12687;SDS011;6408;59.388;17.798;2023-06-14T06:05:22;4.00;;;2.53;;
12687;SDS011;6408;59.388;17.798;2023-06-14T06:07:50;3.08;;;2.78;;
12687;SDS011;6408;59.388;17.798;2023-06-14T06:10:17;6.80;;;2.85;;
12687;SDS011;6408;59.388;17.798;2023-06-14T06:12:44;5.00;;;2.80;;
12687;SDS011;6408;59.388;17.798;2023-06-14T06:15:12;4.63;;;2.33;;
12687;SDS011;6408;59.388;17.798;2023-06-14T06:17:41;2.85;;;2.45;;
12687;SDS011;6408;59.388;17.798;2023-06-14T06:20:09;4.40;;;2.35;;
12687;SDS011;6408;59.388;17.798;2023-06-14T06:22:37;5.30;;;2.58;;
12687;SDS011;6408;59.388;17.798;2023-06-14T06:25:05;4.95;;;2.42;;
12687;SDS011;6408;59.388;17.798;2023-06-14T06:27:33;5.75;;;2.50;;
12687;SDS011;6408;59.388;17.798;2023-06-14T06:30:02;3.05;;;2.58;;
12687;SDS011;6408;59.388;17.798;2023-06-14T06:32:30;6.53;;;2.78;;
12687;SDS011;6408;59.388;17.798;2023-06-14T06:34:59;3.15;;;2.47;;
12687;SDS011;6408;59.388;17.798;2023-06-14T06:37:26;5.82;;;2.53;;
12687;SDS011;6408;59.388;17.798;2023-06-14T06:39:53;4.18;;;2.25;;
12687;SDS011;6408;59.388;17.798;2023-06-14T06:42:20;3.30;;;2.33;;
12687;SDS011;6408;59.388;17.798;2023-06-14T06:44:47;4.07;;;2.53;;
12687;SDS011;6408;59.388;17.798;2023-06-14T06:47:14;5.20;;;2.72;;
12687;SDS011;6408;59.388;17.798;2023-06-14T06:49:41;5.05;;;2.80;;
12687;SDS011;6408;59.388;17.798;2023-06-14T06:52:10;6.00;;;2.70;;
12687;SDS011;6408;59.388;17.798;2023-06-14T06:54:37;6.55;;;3.15;;
12687;SDS011;6408;59.388;17.798;2023-06-14T06:57:04;6.90;;;2.92;;
12687;SDS011;6408;59.388;17.798;2023-06-14T06:59:33;5.75;;;2.83;;
12687;SDS011;6408;59.388;17.798;2023-06-14T07:02:02;7.55;;;2.75;;
12687;SDS011;6408;59.388;17.798;2023-06-14T07:04:30;6.05;;;2.72;;
12687;SDS011;6408;59.388;17.798;2023-06-14T07:06:57;4.15;;;2.80;;
12687;SDS011;6408;59.388;17.798;2023-06-14T07:09:26;4.15;;;2.78;;
12687;SDS011;6408;59.388;17.798;2023-06-14T07:11:53;4.30;;;2.80;;
12687;SDS011;6408;59.388;17.798;2023-06-14T07:14:20;4.22;;;2.83;;
12687;SDS011;6408;59.388;17.798;2023-06-14T07:16:48;6.72;;;3.05;;
12687;SDS011;6408;59.388;17.798;2023-06-14T07:19:15;4.20;;;3.00;;
12687;SDS011;6408;59.388;17.798;2023-06-14T07:21:42;4.88;;;2.53;;
12687;SDS011;6408;59.388;17.798;2023-06-14T07:24:09;5.38;;;2.90;;
12687;SDS011;6408;59.388;17.798;2023-06-14T07:26:38;4.60;;;2.80;;
12687;SDS011;6408;59.388;17.798;2023-06-14T07:29:05;6.93;;;2.90;;
12687;SDS011;6408;59.388;17.798;2023-06-14T07:31:32;6.90;;;2.75;;
12687;SDS011;6408;59.388;17.798;2023-06-14T07:33:59;4.10;;;2.60;;
12687;SDS011;6408;59.388;17.798;2023-06-14T07:36:26;6.05;;;2.70;;
12687;SDS011;6408;59.388;17.798;2023-06-14T07:38:53;3.08;;;2.15;;
12687;SDS011;6408;59.388;17.798;2023-06-14T07:41:21;5.00;;;2.67;;
12687;SDS011;6408;59.388;17.798;2023-06-14T07:43:49;4.22;;;2.40;;
12687;SDS011;6408;59.388;17.798;2023-06-14T07:46:17;4.63;;;2.60;;
12687;SDS011;6408;59.388;17.798;2023-06-14T07:48:44;4.50;;;2.83;;
12687;SDS011;6408;59.388;17.798;2023-06-14T07:51:12;7.68;;;2.83;;
12687;SDS011;6408;59.388;17.798;2023-06-14T07:53:39;5.78;;;2.80;;
12687;SDS011;6408;59.388;17.798;2023-06-14T07:56:07;5.57;;;2.80;;
12687;SDS011;6408;59.388;17.798;2023-06-14T07:58:34;6.75;;;2.70;;
12687;SDS011;6408;59.388;17.798;2023-06-14T08:01:03;3.25;;;2.63;;
12687;SDS011;6408;59.388;17.798;2023-06-14T08:03:33;4.00;;;2.70;;
12687;SDS011;6408;59.388;17.798;2023-06-14T08:06:00;7.80;;;2.40;;
12687;SDS011;6408;59.388;17.798;2023-06-14T08:08:27;3.92;;;2.60;;
12687;SDS011;6408;59.388;17.798;2023-06-14T08:10:55;4.88;;;2.95;;
12687;SDS011;6408;59.388;17.798;2023-06-14T08:13:23;4.28;;;2.88;;
12687;SDS011;6408;59.388;17.798;2023-06-14T08:15:50;5.05;;;2.67;;
12687;SDS011;6408;59.388;17.798;2023-06-14T08:18:18;5.15;;;2.38;;
12687;SDS011;6408;59.388;17.798;2023-06-14T08:20:46;4.20;;;2.65;;
12687;SDS011;6408;59.388;17.798;2023-06-14T08:23:13;3.17;;;2.80;;
12687;SDS011;6408;59.388;17.798;2023-06-14T08:25:41;6.18;;;2.33;;
12687;SDS011;6408;59.388;17.798;2023-06-14T08:28:08;3.83;;;2.53;;
12687;SDS011;6408;59.388;17.798;2023-06-14T08:30:35;7.22;;;2.50;;
12687;SDS011;6408;59.388;17.798;2023-06-14T08:33:02;4.55;;;2.78;;
12687;SDS011;6408;59.388;17.798;2023-06-14T08:35:31;2.58;;;2.28;;
12687;SDS011;6408;59.388;17.798;2023-06-14T08:37:58;3.75;;;2.50;;
12687;SDS011;6408;59.388;17.798;2023-06-14T08:40:25;3.97;;;2.75;;
12687;SDS011;6408;59.388;17.798;2023-06-14T08:42:55;3.78;;;2.55;;
12687;SDS011;6408;59.388;17.798;2023-06-14T08:45:24;4.30;;;2.28;;
12687;SDS011;6408;59.388;17.798;2023-06-14T08:47:51;2.80;;;2.60;;
12687;SDS011;6408;59.388;17.798;2023-06-14T08:50:23;6.93;;;2.60;;
12687;SDS011;6408;59.388;17.798;2023-06-14T08:52:53;3.22;;;2.40;;
12687;SDS011;6408;59.388;17.798;2023-06-14T08:55:22;3.42;;;2.80;;
12687;SDS011;6408;59.388;17.798;2023-06-14T08:57:53;3.63;;;2.65;;
12687;SDS011;6408;59.388;17.798;2023-06-14T09:00:21;3.67;;;2.47;;
12687;SDS011;6408;59.388;17.798;2023-06-14T09:02:49;4.30;;;2.53;;
12687;SDS011;6408;59.388;17.798;2023-06-14T09:05:21;3.08;;;2.65;;
12687;SDS011;6408;59.388;17.798;2023-06-14T09:07:49;2.92;;;2.40;;
12687;SDS011;6408;59.388;17.798;2023-06-14T09:10:17;3.30;;;2.53;;
12687;SDS011;6408;59.388;17.798;2023-06-14T09:12:47;5.55;;;2.67;;
12687;SDS011;6408;59.388;17.798;2023-06-14T09:15:14;4.18;;;2.88;;
12687;SDS011;6408;59.388;17.798;2023-06-14T09:17:42;5.10;;;2.75;;
12687;SDS011;6408;59.388;17.798;2023-06-14T09:20:10;5.18;;;2.85;;
12687;SDS011;6408;59.388;17.798;2023-06-14T09:22:38;5.32;;;2.70;;
12687;SDS011;6408;59.388;17.798;2023-06-14T09:25:07;5.55;;;2.80;;
12687;SDS011;6408;59.388;17.798;2023-06-14T09:27:36;3.88;;;2.75;;
12687;SDS011;6408;59.388;17.798;2023-06-14T09:30:05;4.00;;;2.90;;
12687;SDS011;6408;59.388;17.798;2023-06-14T09:32:36;9.85;;;2.92;;
12687;SDS011;6408;59.388;17.798;2023-06-14T09:35:04;5.63;;;2.80;;
12687;SDS011;6408;59.388;17.798;2023-06-14T09:37:32;5.72;;;2.78;;
12687;SDS011;6408;59.388;17.798;2023-06-14T09:40:02;9.10;;;3.60;;
12687;SDS011;6408;59.388;17.798;2023-06-14T09:42:30;4.88;;;2.80;;
12687;SDS011;6408;59.388;17.798;2023-06-14T09:45:02;4.40;;;2.97;;
12687;SDS011;6408;59.388;17.798;2023-06-14T09:47:30;4.25;;;3.25;;
12687;SDS011;6408;59.388;17.798;2023-06-14T09:49:57;6.07;;;3.20;;
12687;SDS011;6408;59.388;17.798;2023-06-14T09:52:25;4.07;;;3.20;;
12687;SDS011;6408;59.388;17.798;2023-06-14T09:54:53;4.22;;;3.22;;
12687;SDS011;6408;59.388;17.798;2023-06-14T09:57:22;3.13;;;2.80;;
12687;SDS011;6408;59.388;17.798;2023-06-14T09:59:53;6.38;;;3.35;;
12687;SDS011;6408;59.388;17.798;2023-06-14T10:02:26;3.45;;;3.15;;
12687;SDS011;6408;59.388;17.798;2023-06-14T10:04:58;4.38;;;3.25;;
12687;SDS011;6408;59.388;17.798;2023-06-14T10:07:32;4.55;;;3.30;;
12687;SDS011;6408;59.388;17.798;2023-06-14T10:10:01;3.50;;;3.20;;
12687;SDS011;6408;59.388;17.798;2023-06-14T10:12:30;4.38;;;3.00;;
12687;SDS011;6408;59.388;17.798;2023-06-14T10:14:57;4.53;;;3.22;;
12687;SDS011;6408;59.388;17.798;2023-06-14T10:17:30;6.80;;;3.42;;
12687;SDS011;6408;59.388;17.798;2023-06-14T10:20:07;6.72;;;3.40;;
12687;SDS011;6408;59.388;17.798;2023-06-14T10:22:44;3.83;;;3.33;;
12687;SDS011;6408;59.388;17.798;2023-06-14T10:25:25;5.22;;;3.60;;
12687;SDS011;6408;59.388;17.798;2023-06-14T10:28:01;3.65;;;3.33;;
12687;SDS011;6408;59.388;17.798;2023-06-14T10:30:30;6.38;;;3.25;;
12687;SDS011;6408;59.388;17.798;2023-06-14T10:33:05;3.63;;;3.33;;
12687;SDS011;6408;59.388;17.798;2023-06-14T10:35:33;4.68;;;3.78;;
12687;SDS011;6408;59.388;17.798;2023-06-14T10:38:06;4.13;;;3.40;;
12687;SDS011;6408;59.388;17.798;2023-06-14T10:40:34;5.72;;;3.40;;
12687;SDS011;6408;59.388;17.798;2023-06-14T10:48:48;5.45;;;3.60;;
12687;SDS011;6408;59.388;17.798;2023-06-14T10:51:24;3.65;;;3.35;;
12687;SDS011;6408;59.388;17.798;2023-06-14T10:53:51;4.50;;;3.53;;
12687;SDS011;6408;59.388;17.798;2023-06-14T10:56:28;5.88;;;3.80;;
12687;SDS011;6408;59.388;17.798;2023-06-14T10:58:56;5.07;;;3.80;;
12687;SDS011;6408;59.388;17.798;2023-06-14T11:01:29;4.30;;;3.20;;
12687;SDS011;6408;59.388;17.798;2023-06-14T11:04:12;5.93;;;3.50;;
12687;SDS011;6408;59.388;17.798;2023-06-14T11:06:46;6.60;;;3.38;;
12687;SDS011;6408;59.388;17.798;2023-06-14T11:09:21;6.78;;;3.63;;
12687;SDS011;6408;59.388;17.798;2023-06-14T11:12:12;4.68;;;3.40;;
12687;SDS011;6408;59.388;17.798;2023-06-14T11:14:41;4.40;;;4.00;;
12687;SDS011;6408;59.388;17.798;2023-06-14T11:17:08;3.63;;;3.30;;
12687;SDS011;6408;59.388;17.798;2023-06-14T11:19:37;3.97;;;3.55;;
12687;SDS011;6408;59.388;17.798;2023-06-14T11:22:04;4.30;;;3.50;;
12687;SDS011;6408;59.388;17.798;2023-06-14T11:24:32;4.30;;;3.35;;
12687;SDS011;6408;59.388;17.798;2023-06-14T11:27:00;4.72;;;3.30;;
12687;SDS011;6408;59.388;17.798;2023-06-14T11:29:28;4.55;;;3.70;;
12687;SDS011;6408;59.388;17.798;2023-06-14T11:31:58;8.65;;;3.55;;
12687;SDS011;6408;59.388;17.798;2023-06-14T11:34:25;3.55;;;3.17;;
12687;SDS011;6408;59.388;17.798;2023-06-14T11:36:54;4.45;;;3.63;;
12687;SDS011;6408;59.388;17.798;2023-06-14T11:39:24;5.05;;;3.90;;
12687;SDS011;6408;59.388;17.798;2023-06-14T11:41:52;7.47;;;3.60;;
12687;SDS011;6408;59.388;17.798;2023-06-14T11:44:20;5.38;;;3.35;;
12687;SDS011;6408;59.388;17.798;2023-06-14T11:46:48;3.60;;;3.30;;
12687;SDS011;6408;59.388;17.798;2023-06-14T11:49:15;13.20;;;3.65;;
12687;SDS011;6408;59.388;17.798;2023-06-14T11:51:42;4.75;;;3.50;;
12687;SDS011;6408;59.388;17.798;2023-06-14T11:54:11;5.05;;;3.10;;
12687;SDS011;6408;59.388;17.798;2023-06-14T11:56:38;5.50;;;3.38;;
12687;SDS011;6408;59.388;17.798;2023-06-14T11:59:06;3.78;;;3.35;;
12687;SDS011;6408;59.388;17.798;2023-06-14T12:01:35;4.22;;;3.22;;
12687;SDS011;6408;59.388;17.798;2023-06-14T12:04:04;6.05;;;3.38;;
12687;SDS011;6408;59.388;17.798;2023-06-14T12:06:31;4.85;;;3.50;;
12687;SDS011;6408;59.388;17.798;2023-06-14T12:09:02;4.22;;;3.20;;
12687;SDS011;6408;59.388;17.798;2023-06-14T12:11:34;5.28;;;3.60;;
12687;SDS011;6408;59.388;17.798;2023-06-14T12:14:02;4.80;;;3.42;;
12687;SDS011;6408;59.388;17.798;2023-06-14T12:16:31;4.57;;;3.10;;
12687;SDS011;6408;59.388;17.798;2023-06-14T12:19:00;3.67;;;3.38;;
12687;SDS011;6408;59.388;17.798;2023-06-14T12:21:36;5.25;;;3.50;;
12687;SDS011;6408;59.388;17.798;2023-06-14T12:24:05;5.95;;;3.40;;
12687;SDS011;6408;59.388;17.798;2023-06-14T12:26:37;3.88;;;3.40;;
12687;SDS011;6408;59.388;17.798;2023-06-14T12:29:06;3.78;;;3.40;;
12687;SDS011;6408;59.388;17.798;2023-06-14T12:31:33;3.88;;;3.58;;
12687;SDS011;6408;59.388;17.798;2023-06-14T12:34:01;4.35;;;3.95;;
12687;SDS011;6408;59.388;17.798;2023-06-14T12:36:29;5.25;;;3.67;;
12687;SDS011;6408;59.388;17.798;2023-06-14T12:38:57;5.80;;;3.60;;
12687;SDS011;6408;59.388;17.798;2023-06-14T12:41:24;5.07;;;3.40;;
12687;SDS011;6408;59.388;17.798;2023-06-14T12:43:53;3.60;;;3.30;;
12687;SDS011;6408;59.388;17.798;2023-06-14T12:46:23;3.45;;;3.15;;
12687;SDS011;6408;59.388;17.798;2023-06-14T12:48:50;5.32;;;3.60;;
12687;SDS011;6408;59.388;17.798;2023-06-14T12:51:17;5.25;;;3.30;;
12687;SDS011;6408;59.388;17.798;2023-06-14T12:53:45;9.15;;;3.60;;
12687;SDS011;6408;59.388;17.798;2023-06-14T12:56:12;6.00;;;3.60;;
12687;SDS011;6408;59.388;17.798;2023-06-14T12:58:39;3.28;;;2.97;;
12687;SDS011;6408;59.388;17.798;2023-06-14T13:01:08;3.72;;;3.33;;
12687;SDS011;6408;59.388;17.798;2023-06-14T13:03:35;4.97;;;3.28;;
12687;SDS011;6408;59.388;17.798;2023-06-14T13:06:02;3.53;;;2.88;;
12687;SDS011;6408;59.388;17.798;2023-06-14T13:08:30;4.88;;;3.25;;
12687;SDS011;6408;59.388;17.798;2023-06-14T13:10:57;4.25;;;3.22;;
12687;SDS011;6408;59.388;17.798;2023-06-14T13:13:25;5.28;;;3.38;;
12687;SDS011;6408;59.388;17.798;2023-06-14T13:15:52;5.30;;;3.38;;
12687;SDS011;6408;59.388;17.798;2023-06-14T13:18:21;3.58;;;3.22;;
12687;SDS011;6408;59.388;17.798;2023-06-14T13:20:48;4.00;;;3.70;;
12687;SDS011;6408;59.388;17.798;2023-06-14T13:23:16;3.90;;;3.50;;
12687;SDS011;6408;59.388;17.798;2023-06-14T13:25:43;5.78;;;3.40;;
12687;SDS011;6408;59.388;17.798;2023-06-14T13:28:10;4.50;;;3.92;;
12687;SDS011;6408;59.388;17.798;2023-06-14T13:30:38;5.60;;;3.70;;
12687;SDS011;6408;59.388;17.798;2023-06-14T13:33:05;4.22;;;3.08;;
12687;SDS011;6408;59.388;17.798;2023-06-14T13:35:34;3.78;;;3.30;;
12687;SDS011;6408;59.388;17.798;2023-06-14T13:38:01;4.07;;;3.53;;
12687;SDS011;6408;59.388;17.798;2023-06-14T13:40:28;3.67;;;3.05;;
12687;SDS011;6408;59.388;17.798;2023-06-14T13:42:56;6.18;;;3.40;;
12687;SDS011;6408;59.388;17.798;2023-06-14T13:45:23;6.82;;;3.85;;
12687;SDS011;6408;59.388;17.798;2023-06-14T13:47:51;3.58;;;3.05;;
12687;SDS011;6408;59.388;17.798;2023-06-14T13:50:18;3.67;;;3.20;;
12687;SDS011;6408;59.388;17.798;2023-06-14T13:52:48;5.57;;;3.33;;
12687;SDS011;6408;59.388;17.798;2023-06-14T13:55:15;4.03;;;3.33;;
12687;SDS011;6408;59.388;17.798;2023-06-14T13:57:42;3.78;;;3.38;;
12687;SDS011;6408;59.388;17.798;2023-06-14T14:00:10;5.40;;;3.10;;
12687;SDS011;6408;59.388;17.798;2023-06-14T14:02:39;5.28;;;3.45;;
12687;SDS011;6408;59.388;17.798;2023-06-14T14:05:07;3.75;;;3.40;;
12687;SDS011;6408;59.388;17.798;2023-06-14T14:07:35;4.75;;;3.47;;
12687;SDS011;6408;59.388;17.798;2023-06-14T14:10:06;5.30;;;3.40;;
12687;SDS011;6408;59.388;17.798;2023-06-14T14:12:34;3.33;;;3.00;;
12687;SDS011;6408;59.388;17.798;2023-06-14T14:15:04;5.55;;;3.28;;
12687;SDS011;6408;59.388;17.798;2023-06-14T14:17:33;3.88;;;3.33;;
12687;SDS011;6408;59.388;17.798;2023-06-14T14:20:00;5.15;;;3.53;;
12687;SDS011;6408;59.388;17.798;2023-06-14T14:22:28;3.80;;;3.33;;
12687;SDS011;6408;59.388;17.798;2023-06-14T14:24:55;5.63;;;3.50;;
12687;SDS011;6408;59.388;17.798;2023-06-14T14:27:25;3.85;;;3.55;;
12687;SDS011;6408;59.388;17.798;2023-06-14T14:29:52;4.40;;;3.30;;
12687;SDS011;6408;59.388;17.798;2023-06-14T14:32:20;4.03;;;3.50;;
12687;SDS011;6408;59.388;17.798;2023-06-14T14:34:47;4.00;;;3.60;;
12687;SDS011;6408;59.388;17.798;2023-06-14T14:37:15;4.35;;;3.65;;
12687;SDS011;6408;59.388;17.798;2023-06-14T14:39:44;5.70;;;3.40;;
12687;SDS011;6408;59.388;17.798;2023-06-14T14:42:12;5.82;;;3.88;;
12687;SDS011;6408;59.388;17.798;2023-06-14T14:44:42;5.85;;;3.58;;
12687;SDS011;6408;59.388;17.798;2023-06-14T14:47:09;3.65;;;3.35;;
12687;SDS011;6408;59.388;17.798;2023-06-14T14:49:37;4.63;;;3.50;;
12687;SDS011;6408;59.388;17.798;2023-06-14T14:52:05;4.50;;;3.85;;
12687;SDS011;6408;59.388;17.798;2023-06-14T14:54:33;6.88;;;3.45;;
12687;SDS011;6408;59.388;17.798;2023-06-14T14:57:01;3.75;;;3.42;;
12687;SDS011;6408;59.388;17.798;2023-06-14T14:59:28;4.15;;;3.75;;
12687;SDS011;6408;59.388;17.798;2023-06-14T15:01:57;4.38;;;3.33;;